sensor_id;sensor_type;location;lat;lon;timestamp;pressure;altitude;pressure_sealevel;temperature;humidity
84781;BME280;75011;50.086;19.886;2024-01-11T00:00:31;100071.31;;;-9.27;77.91
84781;BME280;75011;50.086;19.886;2024-01-11T00:03:32;100070.78;;;-9.32;79.03
84781;BME280;75011;50.086;19.886;2024-01-11T00:06:40;100058.91;;;-9.36;79.21
84781;BME280;75011;50.086;19.886;2024-01-11T00:09:41;100053.91;;;-9.39;79.27
84781;BME280;75011;50.086;19.886;2024-01-11T00:12:41;100055.59;;;-9.38;78.97
84781;BME280;75011;50.086;19.886;2024-01-11T00:15:42;100062.88;;;-9.31;78.49
84781;BME280;75011;50.086;19.886;2024-01-11T00:18:42;100057.91;;;-9.21;78.39
84781;BME280;75011;50.086;19.886;2024-01-11T00:21:44;100044.38;;;-9.14;79.38
84781;BME280;75011;50.086;19.886;2024-01-11T00:24:44;100035.34;;;-9.08;78.57
84781;BME280;75011;50.086;19.886;2024-01-11T00:27:45;100033.06;;;-9.00;78.77
84781;BME280;75011;50.086;19.886;2024-01-11T00:30:45;100037.94;;;-8.96;79.38
84781;BME280;75011;50.086;19.886;2024-01-11T00:33:46;100026.28;;;-8.90;79.79
84781;BME280;75011;50.086;19.886;2024-01-11T00:36:48;100018.81;;;-8.82;79.54
84781;BME280;75011;50.086;19.886;2024-01-11T00:39:48;100023.06;;;-8.81;79.30
84781;BME280;75011;50.086;19.886;2024-01-11T00:42:48;100014.53;;;-8.83;79.83
84781;BME280;75011;50.086;19.886;2024-01-11T00:45:49;100015.47;;;-8.84;78.33
84781;BME280;75011;50.086;19.886;2024-01-11T00:48:49;100004.75;;;-8.92;78.82
84781;BME280;75011;50.086;19.886;2024-01-11T00:51:51;99999.84;;;-8.97;78.45
84781;BME280;75011;50.086;19.886;2024-01-11T00:54:51;99995.59;;;-8.98;78.02
84781;BME280;75011;50.086;19.886;2024-01-11T00:57:52;99993.91;;;-8.99;78.37
84781;BME280;75011;50.086;19.886;2024-01-11T01:00:53;100003.19;;;-8.94;79.00
84781;BME280;75011;50.086;19.886;2024-01-11T01:03:54;100005.06;;;-8.84;78.98
84781;BME280;75011;50.086;19.886;2024-01-11T01:06:55;100006.91;;;-8.73;79.38
84781;BME280;75011;50.086;19.886;2024-01-11T01:09:56;100008.25;;;-8.68;79.02
84781;BME280;75011;50.086;19.886;2024-01-11T01:12:56;100005.78;;;-8.69;78.97
84781;BME280;75011;50.086;19.886;2024-01-11T01:15:57;99998.50;;;-8.77;78.67
84781;BME280;75011;50.086;19.886;2024-01-11T01:18:57;99998.28;;;-8.74;78.47
84781;BME280;75011;50.086;19.886;2024-01-11T01:21:59;99994.31;;;-8.79;78.45
84781;BME280;75011;50.086;19.886;2024-01-11T01:24:59;99999.63;;;-8.81;80.04
84781;BME280;75011;50.086;19.886;2024-01-11T01:28:00;99994.00;;;-8.87;78.20
84781;BME280;75011;50.086;19.886;2024-01-11T01:31:00;99990.69;;;-8.89;79.06
84781;BME280;75011;50.086;19.886;2024-01-11T01:34:01;99987.66;;;-8.96;78.28
84781;BME280;75011;50.086;19.886;2024-01-11T01:37:03;99975.81;;;-9.00;78.59
84781;BME280;75011;50.086;19.886;2024-01-11T01:40:04;99974.84;;;-8.99;78.86
84781;BME280;75011;50.086;19.886;2024-01-11T01:43:07;99961.09;;;-9.01;79.45
84781;BME280;75011;50.086;19.886;2024-01-11T01:46:07;99975.06;;;-8.89;79.15
84781;BME280;75011;50.086;19.886;2024-01-11T01:49:10;99976.31;;;-8.82;78.98
84781;BME280;75011;50.086;19.886;2024-01-11T01:52:14;99976.94;;;-8.79;77.70
84781;BME280;75011;50.086;19.886;2024-01-11T01:55:16;99972.00;;;-8.71;77.73
84781;BME280;75011;50.086;19.886;2024-01-11T01:58:17;99974.53;;;-8.69;78.61
84781;BME280;75011;50.086;19.886;2024-01-11T02:01:19;99984.19;;;-8.59;77.77
84781;BME280;75011;50.086;19.886;2024-01-11T02:04:20;99973.13;;;-8.50;77.05
84781;BME280;75011;50.086;19.886;2024-01-11T02:07:22;99979.81;;;-8.46;77.23
84781;BME280;75011;50.086;19.886;2024-01-11T02:10:23;99971.75;;;-8.43;76.91
84781;BME280;75011;50.086;19.886;2024-01-11T02:13:24;99971.66;;;-8.41;77.70
84781;BME280;75011;50.086;19.886;2024-01-11T02:16:25;99970.81;;;-8.42;76.44
84781;BME280;75011;50.086;19.886;2024-01-11T02:19:25;99969.97;;;-8.42;77.26
84781;BME280;75011;50.086;19.886;2024-01-11T02:22:34;99968.00;;;-8.39;76.60
84781;BME280;75011;50.086;19.886;2024-01-11T02:25:36;99963.19;;;-8.32;76.87
84781;BME280;75011;50.086;19.886;2024-01-11T02:28:36;99969.00;;;-8.28;77.09
84781;BME280;75011;50.086;19.886;2024-01-11T02:31:37;99964.63;;;-8.28;76.74
84781;BME280;75011;50.086;19.886;2024-01-11T02:34:37;99945.31;;;-8.25;76.17
84781;BME280;75011;50.086;19.886;2024-01-11T02:37:38;99940.09;;;-8.25;76.69
84781;BME280;75011;50.086;19.886;2024-01-11T02:40:40;99938.22;;;-8.23;75.83
84781;BME280;75011;50.086;19.886;2024-01-11T02:43:40;99945.06;;;-8.22;75.70
84781;BME280;75011;50.086;19.886;2024-01-11T02:46:41;99948.63;;;-8.23;76.25
84781;BME280;75011;50.086;19.886;2024-01-11T02:49:41;99954.09;;;-8.26;75.82
84781;BME280;75011;50.086;19.886;2024-01-11T02:52:42;99943.66;;;-8.26;75.50
84781;BME280;75011;50.086;19.886;2024-01-11T02:55:43;99940.91;;;-8.25;74.73
84781;BME280;75011;50.086;19.886;2024-01-11T02:58:44;99947.69;;;-8.22;76.20
84781;BME280;75011;50.086;19.886;2024-01-11T03:01:44;99954.44;;;-8.20;74.65
84781;BME280;75011;50.086;19.886;2024-01-11T03:04:45;99950.06;;;-8.19;74.45
84781;BME280;75011;50.086;19.886;2024-01-11T03:07:45;99952.16;;;-8.24;75.93
84781;BME280;75011;50.086;19.886;2024-01-11T03:10:49;99935.47;;;-8.22;75.01
84781;BME280;75011;50.086;19.886;2024-01-11T03:13:50;99933.25;;;-8.26;75.28
84781;BME280;75011;50.086;19.886;2024-01-11T03:16:50;99935.47;;;-8.33;75.45
84781;BME280;75011;50.086;19.886;2024-01-11T03:19:51;99925.31;;;-8.49;74.52
84781;BME280;75011;50.086;19.886;2024-01-11T03:22:51;99920.94;;;-8.61;75.99
84781;BME280;75011;50.086;19.886;2024-01-11T03:25:53;99916.72;;;-8.74;76.08
84781;BME280;75011;50.086;19.886;2024-01-11T03:28:54;99916.84;;;-8.88;75.24
84781;BME280;75011;50.086;19.886;2024-01-11T03:31:54;99937.78;;;-8.90;76.26
84781;BME280;75011;50.086;19.886;2024-01-11T03:34:54;99936.94;;;-8.78;76.21
84781;BME280;75011;50.086;19.886;2024-01-11T03:37:55;99921.59;;;-8.70;75.30
84781;BME280;75011;50.086;19.886;2024-01-11T03:40:57;99899.38;;;-8.63;76.41
84781;BME280;75011;50.086;19.886;2024-01-11T03:43:57;99900.09;;;-8.61;75.08
84781;BME280;75011;50.086;19.886;2024-01-11T03:46:58;99911.81;;;-8.66;75.03
84781;BME280;75011;50.086;19.886;2024-01-11T03:49:58;99914.97;;;-8.74;75.88
84781;BME280;75011;50.086;19.886;2024-01-11T03:52:59;99916.31;;;-8.81;75.84
84781;BME280;75011;50.086;19.886;2024-01-11T03:56:00;99912.34;;;-8.86;76.02
84781;BME280;75011;50.086;19.886;2024-01-11T03:59:01;99919.66;;;-8.91;75.31
84781;BME280;75011;50.086;19.886;2024-01-11T04:02:01;99921.75;;;-8.97;75.03
84781;BME280;75011;50.086;19.886;2024-01-11T04:05:02;99922.28;;;-9.04;76.19
84781;BME280;75011;50.086;19.886;2024-01-11T04:08:04;99918.44;;;-9.11;76.04
84781;BME280;75011;50.086;19.886;2024-01-11T04:11:06;99925.53;;;-9.13;76.23
84781;BME280;75011;50.086;19.886;2024-01-11T04:14:06;99907.63;;;-9.18;75.19
84781;BME280;75011;50.086;19.886;2024-01-11T04:17:07;99910.00;;;-9.27;76.50
84781;BME280;75011;50.086;19.886;2024-01-11T04:20:08;99907.84;;;-9.33;75.71
84781;BME280;75011;50.086;19.886;2024-01-11T04:23:08;99901.78;;;-9.34;76.54
84781;BME280;75011;50.086;19.886;2024-01-11T04:26:10;99909.72;;;-9.35;76.42
84781;BME280;75011;50.086;19.886;2024-01-11T04:29:11;99902.72;;;-9.35;76.88
84781;BME280;75011;50.086;19.886;2024-01-11T04:32:11;99901.69;;;-9.32;75.52
84781;BME280;75011;50.086;19.886;2024-01-11T04:35:12;99901.69;;;-9.32;76.31
84781;BME280;75011;50.086;19.886;2024-01-11T04:38:12;99892.94;;;-9.31;76.13
84781;BME280;75011;50.086;19.886;2024-01-11T04:41:14;99882.03;;;-9.36;75.68
84781;BME280;75011;50.086;19.886;2024-01-11T04:44:15;99879.84;;;-9.42;76.75
84781;BME280;75011;50.086;19.886;2024-01-11T04:47:15;99878.78;;;-9.52;76.51
84781;BME280;75011;50.086;19.886;2024-01-11T04:50:16;99885.03;;;-9.55;76.57
84781;BME280;75011;50.086;19.886;2024-01-11T04:53:17;99876.44;;;-9.55;77.27
84781;BME280;75011;50.086;19.886;2024-01-11T04:56:18;99861.22;;;-9.49;76.55
84781;BME280;75011;50.086;19.886;2024-01-11T04:59:19;99867.06;;;-9.45;76.75
84781;BME280;75011;50.086;19.886;2024-01-11T05:02:20;99866.81;;;-9.42;77.02
84781;BME280;75011;50.086;19.886;2024-01-11T05:05:21;99855.50;;;-9.41;77.17
84781;BME280;75011;50.086;19.886;2024-01-11T05:08:22;99844.25;;;-9.54;77.44
84781;BME280;75011;50.086;19.886;2024-01-11T05:11:24;99853.63;;;-9.39;77.26
84781;BME280;75011;50.086;19.886;2024-01-11T05:14:25;99832.19;;;-9.30;77.02
84781;BME280;75011;50.086;19.886;2024-01-11T05:17:26;99822.72;;;-9.31;76.69
84781;BME280;75011;50.086;19.886;2024-01-11T05:20:27;99820.63;;;-9.26;76.54
84781;BME280;75011;50.086;19.886;2024-01-11T05:23:27;99805.84;;;-9.26;76.89
84781;BME280;75011;50.086;19.886;2024-01-11T05:26:29;99814.88;;;-9.19;77.26
84781;BME280;75011;50.086;19.886;2024-01-11T05:29:29;99835.78;;;-9.08;76.83
84781;BME280;75011;50.086;19.886;2024-01-11T05:32:30;99828.88;;;-8.96;77.14
84781;BME280;75011;50.086;19.886;2024-01-11T05:35:30;99805.09;;;-8.91;77.57
84781;BME280;75011;50.086;19.886;2024-01-11T05:38:30;99807.84;;;-8.93;76.71
84781;BME280;75011;50.086;19.886;2024-01-11T05:41:32;99810.44;;;-8.93;77.18
84781;BME280;75011;50.086;19.886;2024-01-11T05:44:33;99832.09;;;-8.92;77.51
84781;BME280;75011;50.086;19.886;2024-01-11T05:47:33;99833.88;;;-8.93;76.17
84781;BME280;75011;50.086;19.886;2024-01-11T05:50:34;99840.44;;;-9.00;76.98
84781;BME280;75011;50.086;19.886;2024-01-11T05:53:34;99818.41;;;-9.07;76.62
84781;BME280;75011;50.086;19.886;2024-01-11T05:56:36;99808.81;;;-9.07;76.51
84781;BME280;75011;50.086;19.886;2024-01-11T05:59:36;99797.25;;;-9.03;77.01
84781;BME280;75011;50.086;19.886;2024-01-11T06:02:37;99800.38;;;-8.98;75.84
84781;BME280;75011;50.086;19.886;2024-01-11T06:05:37;99810.78;;;-8.98;76.12
84781;BME280;75011;50.086;19.886;2024-01-11T06:08:38;99812.22;;;-8.93;75.84
84781;BME280;75011;50.086;19.886;2024-01-11T06:11:39;99824.09;;;-8.89;76.39
84781;BME280;75011;50.086;19.886;2024-01-11T06:14:40;99840.63;;;-8.90;77.18
84781;BME280;75011;50.086;19.886;2024-01-11T06:17:40;99851.66;;;-8.87;75.83
84781;BME280;75011;50.086;19.886;2024-01-11T06:20:41;99834.03;;;-8.83;76.69
84781;BME280;75011;50.086;19.886;2024-01-11T06:23:41;99819.75;;;-8.78;76.43
84781;BME280;75011;50.086;19.886;2024-01-11T06:26:43;99825.59;;;-8.74;75.75
84781;BME280;75011;50.086;19.886;2024-01-11T06:29:44;99822.28;;;-8.76;75.25
84781;BME280;75011;50.086;19.886;2024-01-11T06:32:44;99821.31;;;-8.75;75.82
84781;BME280;75011;50.086;19.886;2024-01-11T06:35:44;99811.59;;;-8.73;76.67
84781;BME280;75011;50.086;19.886;2024-01-11T06:38:45;99804.63;;;-8.73;76.36
84781;BME280;75011;50.086;19.886;2024-01-11T06:41:47;99787.38;;;-8.74;75.82
84781;BME280;75011;50.086;19.886;2024-01-11T06:44:47;99769.13;;;-8.74;76.64
84781;BME280;75011;50.086;19.886;2024-01-11T06:47:48;99772.13;;;-8.67;76.34
84781;BME280;75011;50.086;19.886;2024-01-11T06:50:48;99756.53;;;-8.56;76.56
84781;BME280;75011;50.086;19.886;2024-01-11T06:53:49;99718.53;;;-8.48;75.30
84781;BME280;75011;50.086;19.886;2024-01-11T06:56:51;99729.63;;;-8.33;76.21
84781;BME280;75011;50.086;19.886;2024-01-11T06:59:51;99731.88;;;-8.28;75.06
84781;BME280;75011;50.086;19.886;2024-01-11T07:02:52;99720.94;;;-8.22;75.46
84781;BME280;75011;50.086;19.886;2024-01-11T07:05:52;99728.78;;;-8.11;74.85
84781;BME280;75011;50.086;19.886;2024-01-11T07:08:53;99729.41;;;-7.97;75.36
84781;BME280;75011;50.086;19.886;2024-01-11T07:11:55;99723.16;;;-7.72;73.81
84781;BME280;75011;50.086;19.886;2024-01-11T07:14:55;99711.28;;;-7.54;74.02
84781;BME280;75011;50.086;19.886;2024-01-11T07:17:56;99726.31;;;-7.35;74.31
84781;BME280;75011;50.086;19.886;2024-01-11T07:20:57;99718.22;;;-7.21;73.50
84781;BME280;75011;50.086;19.886;2024-01-11T07:23:57;99711.78;;;-7.06;72.31
84781;BME280;75011;50.086;19.886;2024-01-11T07:26:59;99719.59;;;-6.95;71.93
84781;BME280;75011;50.086;19.886;2024-01-11T07:29:59;99711.69;;;-6.84;72.86
84781;BME280;75011;50.086;19.886;2024-01-11T07:33:00;99727.00;;;-6.79;71.73
84781;BME280;75011;50.086;19.886;2024-01-11T07:36:00;99720.06;;;-6.69;71.63
84781;BME280;75011;50.086;19.886;2024-01-11T07:39:01;99725.25;;;-6.58;72.56
84781;BME280;75011;50.086;19.886;2024-01-11T07:42:03;99719.97;;;-6.47;71.81
84781;BME280;75011;50.086;19.886;2024-01-11T07:45:04;99713.59;;;-6.33;71.91
84781;BME280;75011;50.086;19.886;2024-01-11T07:48:05;99711.25;;;-6.16;70.93
84781;BME280;75011;50.086;19.886;2024-01-11T07:51:06;99716.44;;;-5.95;70.41
84781;BME280;75011;50.086;19.886;2024-01-11T07:54:06;99721.59;;;-5.75;69.87
84781;BME280;75011;50.086;19.886;2024-01-11T07:57:08;99715.13;;;-5.50;70.77
84781;BME280;75011;50.086;19.886;2024-01-11T08:00:09;99703.75;;;-5.20;69.70
84781;BME280;75011;50.086;19.886;2024-01-11T08:03:09;99680.75;;;-4.88;69.98
84781;BME280;75011;50.086;19.886;2024-01-11T08:06:10;99685.59;;;-4.55;68.49
84781;BME280;75011;50.086;19.886;2024-01-11T08:09:11;99689.31;;;-4.38;68.27
84781;BME280;75011;50.086;19.886;2024-01-11T08:12:12;99682.09;;;-4.26;67.75
84781;BME280;75011;50.086;19.886;2024-01-11T08:15:13;99681.53;;;-4.01;67.15
84781;BME280;75011;50.086;19.886;2024-01-11T08:18:13;99675.28;;;-3.63;65.73
84781;BME280;75011;50.086;19.886;2024-01-11T08:21:14;99696.56;;;-3.30;62.46
84781;BME280;75011;50.086;19.886;2024-01-11T08:24:14;99654.59;;;-3.04;62.96
84781;BME280;75011;50.086;19.886;2024-01-11T08:27:16;99640.78;;;-2.88;62.34
84781;BME280;75011;50.086;19.886;2024-01-11T08:30:16;99659.94;;;-2.78;63.01
84781;BME280;75011;50.086;19.886;2024-01-11T08:33:17;99666.31;;;-2.63;63.42
84781;BME280;75011;50.086;19.886;2024-01-11T08:36:17;99671.38;;;-2.70;63.22
84781;BME280;75011;50.086;19.886;2024-01-11T08:39:18;99680.56;;;-2.74;62.68
84781;BME280;75011;50.086;19.886;2024-01-11T08:42:20;99687.59;;;-2.92;63.32
84781;BME280;75011;50.086;19.886;2024-01-11T08:45:21;99682.72;;;-3.04;63.51
84781;BME280;75011;50.086;19.886;2024-01-11T08:48:21;99669.38;;;-3.21;63.59
84781;BME280;75011;50.086;19.886;2024-01-11T08:51:21;99682.34;;;-3.09;64.24
84781;BME280;75011;50.086;19.886;2024-01-11T08:54:22;99666.41;;;-3.08;63.98
84781;BME280;75011;50.086;19.886;2024-01-11T08:57:24;99665.84;;;-3.11;63.69
84781;BME280;75011;50.086;19.886;2024-01-11T09:00:24;99671.00;;;-3.10;63.10
84781;BME280;75011;50.086;19.886;2024-01-11T09:03:25;99671.13;;;-3.11;62.86
84781;BME280;75011;50.086;19.886;2024-01-11T09:06:25;99677.47;;;-3.04;63.21
84781;BME280;75011;50.086;19.886;2024-01-11T09:09:26;99674.28;;;-2.90;62.48
84781;BME280;75011;50.086;19.886;2024-01-11T09:12:27;99693.63;;;-2.82;62.69
84781;BME280;75011;50.086;19.886;2024-01-11T09:15:28;99689.94;;;-2.71;63.07
84781;BME280;75011;50.086;19.886;2024-01-11T09:18:28;99680.16;;;-2.61;62.49
84781;BME280;75011;50.086;19.886;2024-01-11T09:21:29;99671.06;;;-2.49;62.61
84781;BME280;75011;50.086;19.886;2024-01-11T09:24:29;99674.75;;;-2.16;61.94
84781;BME280;75011;50.086;19.886;2024-01-11T09:27:31;99673.78;;;-1.89;61.40
84781;BME280;75011;50.086;19.886;2024-01-11T09:30:31;99668.88;;;-1.84;61.48
84781;BME280;75011;50.086;19.886;2024-01-11T09:33:32;99653.22;;;-1.86;61.01
84781;BME280;75011;50.086;19.886;2024-01-11T09:36:32;99639.75;;;-1.83;60.27
84781;BME280;75011;50.086;19.886;2024-01-11T09:39:33;99630.91;;;-1.74;60.06
84781;BME280;75011;50.086;19.886;2024-01-11T09:42:35;99634.72;;;-1.60;57.21
84781;BME280;75011;50.086;19.886;2024-01-11T09:45:36;99663.53;;;-1.67;57.96
84781;BME280;75011;50.086;19.886;2024-01-11T09:48:38;99642.22;;;-1.81;56.91
84781;BME280;75011;50.086;19.886;2024-01-11T09:51:39;99630.91;;;-1.74;57.89
84781;BME280;75011;50.086;19.886;2024-01-11T09:54:42;99624.19;;;-1.60;57.23
84781;BME280;75011;50.086;19.886;2024-01-11T09:57:46;99613.69;;;-1.52;56.79
84781;BME280;75011;50.086;19.886;2024-01-11T10:00:48;99618.13;;;-1.53;57.58
84781;BME280;75011;50.086;19.886;2024-01-11T10:03:52;99612.84;;;-1.53;57.56
84781;BME280;75011;50.086;19.886;2024-01-11T10:06:53;99616.28;;;-1.60;57.08
84781;BME280;75011;50.086;19.886;2024-01-11T10:09:54;99615.25;;;-1.75;57.29
84781;BME280;75011;50.086;19.886;2024-01-11T10:12:57;99607.69;;;-1.70;57.35
84781;BME280;75011;50.086;19.886;2024-01-11T10:16:07;99601.00;;;-1.57;57.38
84781;BME280;75011;50.086;19.886;2024-01-11T10:19:08;99607.75;;;-1.54;57.41
84781;BME280;75011;50.086;19.886;2024-01-11T10:22:09;99598.03;;;-1.62;56.79
84781;BME280;75011;50.086;19.886;2024-01-11T10:25:10;99590.13;;;-1.62;56.82
84781;BME280;75011;50.086;19.886;2024-01-11T10:28:14;99586.31;;;-1.67;56.50
84781;BME280;75011;50.086;19.886;2024-01-11T10:31:14;99583.38;;;-1.64;58.07
84781;BME280;75011;50.086;19.886;2024-01-11T10:34:15;99583.19;;;-1.63;57.26
84781;BME280;75011;50.086;19.886;2024-01-11T10:37:15;99575.47;;;-1.64;57.76
84781;BME280;75011;50.086;19.886;2024-01-11T10:40:17;99595.53;;;-1.63;57.77
84781;BME280;75011;50.086;19.886;2024-01-11T10:43:21;99616.94;;;-1.66;57.56
84781;BME280;75011;50.086;19.886;2024-01-11T10:46:24;99584.50;;;-1.67;58.01
84781;BME280;75011;50.086;19.886;2024-01-11T10:49:25;99575.50;;;-1.56;57.71
84781;BME280;75011;50.086;19.886;2024-01-11T10:52:30;99581.91;;;-1.51;58.41
84781;BME280;75011;50.086;19.886;2024-01-11T10:55:35;99562.13;;;-1.55;58.09
84781;BME280;75011;50.086;19.886;2024-01-11T10:58:39;99575.47;;;-1.48;57.65
84781;BME280;75011;50.086;19.886;2024-01-11T11:01:40;99566.91;;;-1.50;57.46
84781;BME280;75011;50.086;19.886;2024-01-11T11:04:42;99577.31;;;-1.49;58.13
84781;BME280;75011;50.086;19.886;2024-01-11T11:07:44;99549.47;;;-1.51;57.77
84781;BME280;75011;50.086;19.886;2024-01-11T11:10:46;99549.34;;;-1.42;58.13
84781;BME280;75011;50.086;19.886;2024-01-11T11:13:49;99540.59;;;-1.34;57.67
84781;BME280;75011;50.086;19.886;2024-01-11T11:16:52;99541.59;;;-1.35;56.37
84781;BME280;75011;50.086;19.886;2024-01-11T11:19:53;99525.44;;;-1.40;56.91
84781;BME280;75011;50.086;19.886;2024-01-11T11:23:03;99534.50;;;-1.35;57.04
84781;BME280;75011;50.086;19.886;2024-01-11T11:26:06;99513.94;;;-1.31;56.62
84781;BME280;75011;50.086;19.886;2024-01-11T11:29:08;99512.78;;;-1.29;56.42
84781;BME280;75011;50.086;19.886;2024-01-11T11:32:10;99515.91;;;-1.33;55.51
84781;BME280;75011;50.086;19.886;2024-01-11T11:35:11;99504.03;;;-1.37;56.61
84781;BME280;75011;50.086;19.886;2024-01-11T11:38:17;99489.88;;;-1.28;56.87
84781;BME280;75011;50.086;19.886;2024-01-11T11:41:18;99487.56;;;-1.15;56.80
84781;BME280;75011;50.086;19.886;2024-01-11T11:44:20;99500.28;;;-1.10;56.20
84781;BME280;75011;50.086;19.886;2024-01-11T11:47:21;99503.06;;;-1.12;56.31
84781;BME280;75011;50.086;19.886;2024-01-11T11:50:22;99496.94;;;-1.12;55.87
84781;BME280;75011;50.086;19.886;2024-01-11T11:53:23;99488.56;;;-1.08;55.75
84781;BME280;75011;50.086;19.886;2024-01-11T11:56:24;99496.81;;;-1.11;56.25
84781;BME280;75011;50.086;19.886;2024-01-11T11:59:26;99485.25;;;-1.02;55.11
84781;BME280;75011;50.086;19.886;2024-01-11T12:02:27;99478.34;;;-0.95;56.13
84781;BME280;75011;50.086;19.886;2024-01-11T12:05:28;99476.00;;;-0.82;55.50
84781;BME280;75011;50.086;19.886;2024-01-11T12:08:28;99465.72;;;-0.60;54.96
84781;BME280;75011;50.086;19.886;2024-01-11T12:11:29;99461.94;;;-0.58;53.78
84781;BME280;75011;50.086;19.886;2024-01-11T12:14:30;99462.44;;;-0.63;52.74
84781;BME280;75011;50.086;19.886;2024-01-11T12:17:31;99450.22;;;-0.64;52.61
84781;BME280;75011;50.086;19.886;2024-01-11T12:20:32;99445.44;;;-0.60;53.57
84781;BME280;75011;50.086;19.886;2024-01-11T12:23:33;99424.44;;;-0.45;54.08
84781;BME280;75011;50.086;19.886;2024-01-11T12:26:34;99428.94;;;-0.54;53.72
84781;BME280;75011;50.086;19.886;2024-01-11T12:29:38;99439.22;;;-0.67;54.24
84781;BME280;75011;50.086;19.886;2024-01-11T12:32:39;99425.00;;;-0.66;54.29
84781;BME280;75011;50.086;19.886;2024-01-11T12:35:39;99414.13;;;-0.71;54.18
84781;BME280;75011;50.086;19.886;2024-01-11T12:38:46;99446.13;;;-0.74;54.44
84781;BME280;75011;50.086;19.886;2024-01-11T12:41:47;99413.00;;;-0.77;54.16
84781;BME280;75011;50.086;19.886;2024-01-11T12:44:49;99402.44;;;-0.77;54.65
84781;BME280;75011;50.086;19.886;2024-01-11T12:47:49;99413.00;;;-0.77;55.22
84781;BME280;75011;50.086;19.886;2024-01-11T12:50:50;99413.69;;;-0.83;54.97
84781;BME280;75011;50.086;19.886;2024-01-11T12:53:52;99405.13;;;-0.85;54.98
84781;BME280;75011;50.086;19.886;2024-01-11T12:56:53;99400.16;;;-0.80;55.21
84781;BME280;75011;50.086;19.886;2024-01-11T13:00:09;99417.50;;;-0.85;54.18
84781;BME280;75011;50.086;19.886;2024-01-11T13:03:10;99399.22;;;-0.95;53.96
84781;BME280;75011;50.086;19.886;2024-01-11T13:06:10;99375.97;;;-0.99;55.08
84781;BME280;75011;50.086;19.886;2024-01-11T13:09:11;99390.31;;;-1.02;55.41
84781;BME280;75011;50.086;19.886;2024-01-11T13:12:11;99388.69;;;-1.03;54.97
84781;BME280;75011;50.086;19.886;2024-01-11T13:15:13;99378.28;;;-1.04;55.41
84781;BME280;75011;50.086;19.886;2024-01-11T13:18:14;99391.66;;;-1.06;54.89
84781;BME280;75011;50.086;19.886;2024-01-11T13:21:15;99386.06;;;-1.11;55.85
84781;BME280;75011;50.086;19.886;2024-01-11T13:24:15;99378.16;;;-1.11;54.82
84781;BME280;75011;50.086;19.886;2024-01-11T13:27:16;99397.91;;;-1.15;55.45
84781;BME280;75011;50.086;19.886;2024-01-11T13:30:18;99378.81;;;-1.17;55.20
84781;BME280;75011;50.086;19.886;2024-01-11T13:33:18;99389.38;;;-1.25;55.49
84781;BME280;75011;50.086;19.886;2024-01-11T13:36:19;99369.63;;;-1.29;55.50
84781;BME280;75011;50.086;19.886;2024-01-11T13:39:19;99368.47;;;-1.27;56.21
84781;BME280;75011;50.086;19.886;2024-01-11T13:42:19;99376.69;;;-1.30;56.38
84781;BME280;75011;50.086;19.886;2024-01-11T13:45:21;99384.59;;;-1.30;56.47
84781;BME280;75011;50.086;19.886;2024-01-11T13:48:22;99384.28;;;-1.27;56.86
84781;BME280;75011;50.086;19.886;2024-01-11T13:51:22;99386.41;;;-1.30;57.02
84781;BME280;75011;50.086;19.886;2024-01-11T13:54:23;99404.22;;;-1.32;57.01
84781;BME280;75011;50.086;19.886;2024-01-11T13:57:23;99384.94;;;-1.33;57.58
84781;BME280;75011;50.086;19.886;2024-01-11T14:00:25;99376.88;;;-1.31;57.47
84781;BME280;75011;50.086;19.886;2024-01-11T14:03:26;99387.75;;;-1.34;57.96
84781;BME280;75011;50.086;19.886;2024-01-11T14:06:26;99387.25;;;-1.38;58.52
84781;BME280;75011;50.086;19.886;2024-01-11T14:09:26;99379.84;;;-1.42;58.96
84781;BME280;75011;50.086;19.886;2024-01-11T14:12:27;99379.84;;;-1.42;58.36
84781;BME280;75011;50.086;19.886;2024-01-11T14:15:29;99384.63;;;-1.46;58.86
84781;BME280;75011;50.086;19.886;2024-01-11T14:18:29;99393.03;;;-1.42;58.65
84781;BME280;75011;50.086;19.886;2024-01-11T14:21:30;99387.75;;;-1.50;58.79
84781;BME280;75011;50.086;19.886;2024-01-11T14:24:30;99396.34;;;-1.56;59.76
84781;BME280;75011;50.086;19.886;2024-01-11T14:27:31;99393.00;;;-1.50;59.37
84781;BME280;75011;50.086;19.886;2024-01-11T14:30:32;99387.09;;;-1.52;59.78
84781;BME280;75011;50.086;19.886;2024-01-11T14:33:33;99388.06;;;-1.53;60.28
84781;BME280;75011;50.086;19.886;2024-01-11T14:36:33;99398.97;;;-1.56;59.92
84781;BME280;75011;50.086;19.886;2024-01-11T14:39:34;99410.66;;;-1.67;60.30
84781;BME280;75011;50.086;19.886;2024-01-11T14:42:34;99411.94;;;-1.71;60.40
84781;BME280;75011;50.086;19.886;2024-01-11T14:45:36;99430.88;;;-1.75;61.26
84781;BME280;75011;50.086;19.886;2024-01-11T14:48:36;99449.63;;;-1.78;61.06
84781;BME280;75011;50.086;19.886;2024-01-11T14:51:37;99472.03;;;-1.82;61.27
84781;BME280;75011;50.086;19.886;2024-01-11T14:54:37;99471.03;;;-1.89;61.92
84781;BME280;75011;50.086;19.886;2024-01-11T14:57:39;99467.03;;;-1.94;62.44
84781;BME280;75011;50.086;19.886;2024-01-11T15:00:41;99463.59;;;-1.94;62.24
84781;BME280;75011;50.086;19.886;2024-01-11T15:03:41;99473.47;;;-1.96;62.70
84781;BME280;75011;50.086;19.886;2024-01-11T15:06:43;99476.56;;;-2.01;63.38
84781;BME280;75011;50.086;19.886;2024-01-11T15:09:43;99460.44;;;-2.06;64.23
84781;BME280;75011;50.086;19.886;2024-01-11T15:12:44;99465.53;;;-2.12;63.84
84781;BME280;75011;50.086;19.886;2024-01-11T15:15:46;99474.38;;;-2.21;64.91
84781;BME280;75011;50.086;19.886;2024-01-11T15:18:46;99463.63;;;-2.36;65.35
84781;BME280;75011;50.086;19.886;2024-01-11T15:21:47;99461.97;;;-2.37;66.17
84781;BME280;75011;50.086;19.886;2024-01-11T15:24:47;99457.13;;;-2.49;67.19
84781;BME280;75011;50.086;19.886;2024-01-11T15:27:47;99466.34;;;-2.53;66.73
84781;BME280;75011;50.086;19.886;2024-01-11T15:30:49;99464.91;;;-2.48;67.33
84781;BME280;75011;50.086;19.886;2024-01-11T15:33:50;99453.19;;;-2.53;67.36
84781;BME280;75011;50.086;19.886;2024-01-11T15:36:50;99453.44;;;-2.65;68.34
84781;BME280;75011;50.086;19.886;2024-01-11T15:39:51;99458.34;;;-2.70;68.69
84781;BME280;75011;50.086;19.886;2024-01-11T15:42:52;99461.94;;;-2.79;69.06
84781;BME280;75011;50.086;19.886;2024-01-11T15:45:54;99469.47;;;-2.84;70.05